Time;durP1;ratioP1;P1;durP2;ratioP2;P2;SDS_P1;SDS_P2;PMS_P1;PMS_P2;Temp;Humidity;BMP_temperature;BMP_pressure;BME280_temperature;BME280_humidity;BME280_pressure;Samples;Min_cycle;Max_cycle;Signal;HPM_P1;HPM_P2
2023/07/23 00:02:04;;;;;;;1.40;1.30;;;23.90;44.30;;;;;;4990545;28;20216;-61
2023/07/23 00:04:30;;;;;;;1.40;1.27;;;24.00;44.50;;;;;;4998339;28;20226;-62
2023/07/23 00:06:56;;;;;;;1.30;1.20;;;23.90;44.40;;;;;;4994304;28;20219;-61
2023/07/23 00:09:21;;;;;;;1.43;1.33;;;23.90;44.40;;;;;;4995262;28;20672;-62
2023/07/23 00:11:47;;;;;;;1.33;1.23;;;23.90;44.40;;;;;;4997008;28;20235;-61
2023/07/23 00:14:12;;;;;;;1.40;1.30;;;23.90;44.40;;;;;;4984597;28;20711;-63
2023/07/23 00:16:38;;;;;;;1.50;1.40;;;24.00;44.50;;;;;;4980460;28;20255;-61
2023/07/23 00:19:04;;;;;;;1.40;1.30;;;24.00;44.40;;;;;;4974710;28;20216;-62
2023/07/23 00:21:31;;;;;;;1.40;1.30;;;23.90;44.40;;;;;;4972727;28;20279;-61
2023/07/23 00:23:56;;;;;;;1.30;1.20;;;23.90;44.40;;;;;;4982049;28;20453;-63
2023/07/23 00:26:22;;;;;;;1.40;1.30;;;23.90;44.40;;;;;;4993787;28;20481;-61
2023/07/23 00:28:47;;;;;;;1.33;1.23;;;24.00;44.50;;;;;;4995151;28;20355;-61
2023/07/23 00:31:13;;;;;;;1.30;1.20;;;23.90;44.40;;;;;;4992728;28;20243;-61
2023/07/23 00:33:38;;;;;;;1.50;1.40;;;23.90;44.40;;;;;;4998105;28;20677;-63
2023/07/23 00:36:04;;;;;;;1.30;1.20;;;23.90;44.40;;;;;;4995710;28;20909;-62
2023/07/23 00:38:29;;;;;;;1.40;1.30;;;23.90;44.40;;;;;;4996044;28;21037;-61
2023/07/23 00:40:56;;;;;;;1.50;1.40;;;23.90;44.50;;;;;;4991634;28;20243;-61
2023/07/23 00:43:22;;;;;;;1.50;1.40;;;23.90;44.40;;;;;;4975729;28;20320;-62
2023/07/23 00:45:48;;;;;;;1.50;1.40;;;24.00;44.50;;;;;;4973864;28;20483;-62
2023/07/23 00:48:14;;;;;;;1.87;1.40;;;23.90;44.40;;;;;;4978308;28;20453;-62
2023/07/23 00:50:39;;;;;;;1.57;1.47;;;23.90;44.40;;;;;;4979236;28;20224;-62
2023/07/23 00:53:05;;;;;;;1.53;1.43;;;23.90;44.50;;;;;;4976121;28;20352;-63
2023/07/23 00:55:31;;;;;;;1.33;1.23;;;23.90;44.50;;;;;;4973190;28;20255;-61
2023/07/23 00:57:57;;;;;;;1.50;1.40;;;23.90;44.50;;;;;;4976719;28;20957;-62
2023/07/23 01:00:23;;;;;;;1.43;1.33;;;23.90;44.50;;;;;;4982011;28;20234;-63
2023/07/23 01:02:49;;;;;;;1.30;1.20;;;23.90;44.50;;;;;;4983503;28;20813;-62
2023/07/23 01:05:15;;;;;;;1.37;1.27;;;23.90;44.50;;;;;;4976899;28;20342;-62
2023/07/23 01:07:43;;;;;;;1.50;1.40;;;23.90;44.50;;;;;;4976163;28;20236;-62
2023/07/23 01:10:09;;;;;;;1.70;1.60;;;23.90;44.50;;;;;;4996802;28;20503;-62
2023/07/23 01:12:38;;;;;;;1.30;1.20;;;24.00;44.70;;;;;;4995442;28;20469;-61
2023/07/23 01:15:05;;;;;;;1.30;1.20;;;23.90;44.60;;;;;;4990568;28;20447;-62
2023/07/23 01:17:32;;;;;;;1.50;1.40;;;23.90;44.60;;;;;;4977394;28;20545;-62
2023/07/23 01:20:05;;;;;;;1.60;1.50;;;23.90;44.60;;;;;;4999512;28;21390;-63
2023/07/23 01:22:37;;;;;;;1.20;1.10;;;23.90;44.50;;;;;;4996378;28;20466;-62
2023/07/23 01:25:06;;;;;;;1.80;1.70;;;23.90;44.60;;;;;;4989489;28;20992;-62
2023/07/23 01:27:32;;;;;;;1.50;1.40;;;23.90;44.60;;;;;;4992722;28;20450;-61
2023/07/23 01:29:58;;;;;;;1.37;1.27;;;23.90;44.60;;;;;;4979116;28;20435;-62
2023/07/23 01:32:23;;;;;;;1.53;1.43;;;23.90;44.60;;;;;;4981239;28;20379;-62
2023/07/23 01:34:49;;;;;;;1.53;1.43;;;23.90;44.60;;;;;;4981889;28;20223;-62
2023/07/23 01:37:16;;;;;;;1.47;1.20;;;23.90;44.60;;;;;;4992525;28;20221;-61
2023/07/23 01:39:43;;;;;;;1.80;1.70;;;23.90;44.60;;;;;;4975918;28;20480;-62
2023/07/23 01:42:10;;;;;;;1.40;1.30;;;23.90;44.60;;;;;;4986628;28;20453;-62
2023/07/23 01:44:36;;;;;;;1.20;1.10;;;23.90;44.60;;;;;;4994279;28;20567;-62
2023/07/23 01:47:01;;;;;;;1.50;1.40;;;23.90;44.70;;;;;;4994783;28;20467;-62
2023/07/23 01:49:27;;;;;;;1.50;1.40;;;23.90;44.70;;;;;;4993379;28;20295;-62
2023/07/23 01:51:52;;;;;;;1.60;1.50;;;23.90;44.60;;;;;;4992299;28;20235;-62
2023/07/23 01:54:18;;;;;;;1.50;1.40;;;23.90;44.70;;;;;;4993532;28;20220;-61
2023/07/23 01:56:43;;;;;;;1.60;1.50;;;23.90;44.60;;;;;;4992752;28;20219;-61
2023/07/23 01:59:09;;;;;;;1.30;1.20;;;23.90;44.70;;;;;;4993115;28;20936;-62
2023/07/23 02:01:35;;;;;;;1.63;1.53;;;23.90;44.70;;;;;;4991880;28;20226;-62
2023/07/23 02:04:00;;;;;;;1.50;1.40;;;23.90;44.70;;;;;;4991606;28;20235;-62
2023/07/23 02:06:26;;;;;;;1.87;1.77;;;23.90;44.70;;;;;;4996287;28;21200;-62
2023/07/23 02:08:51;;;;;;;1.50;1.40;;;23.90;44.70;;;;;;4994809;28;20247;-62
2023/07/23 02:11:17;;;;;;;1.40;1.30;;;23.90;44.70;;;;;;4987997;28;20259;-62
2023/07/23 02:13:42;;;;;;;1.40;1.30;;;23.90;44.70;;;;;;4974424;28;20212;-61
2023/07/23 02:16:18;;;;;;;1.50;1.40;;;23.90;44.70;;;;;;4983169;28;20225;-62
2023/07/23 02:18:44;;;;;;;1.70;1.60;;;23.90;44.80;;;;;;4975800;28;20208;-62
2023/07/23 02:21:09;;;;;;;1.73;1.63;;;23.90;44.70;;;;;;4990203;28;20511;-62
2023/07/23 02:23:35;;;;;;;1.80;1.70;;;23.90;44.70;;;;;;4995132;28;20925;-61
2023/07/23 02:26:00;;;;;;;2.63;1.97;;;23.90;44.70;;;;;;4992748;28;21154;-62
2023/07/23 02:28:26;;;;;;;1.60;1.50;;;23.90;44.70;;;;;;4993477;28;20224;-62
2023/07/23 02:30:59;;;;;;;1.90;1.70;;;23.90;44.70;;;;;;4988072;28;20223;-62
2023/07/23 02:33:25;;;;;;;1.83;1.73;;;23.90;44.80;;;;;;4978143;28;20473;-62
2023/07/23 02:35:51;;;;;;;1.50;1.40;;;23.90;44.80;;;;;;4993655;28;20464;-62
2023/07/23 02:38:17;;;;;;;1.87;1.77;;;23.90;44.70;;;;;;4991436;28;20831;-61
2023/07/23 02:40:42;;;;;;;1.63;1.53;;;23.90;44.70;;;;;;4990406;28;20224;-62
2023/07/23 02:43:12;;;;;;;1.60;1.50;;;23.90;44.70;;;;;;5021881;28;20297;-61
2023/07/23 02:45:38;;;;;;;2.20;2.10;;;23.90;44.70;;;;;;4980650;28;20233;-62
2023/07/23 02:48:05;;;;;;;2.00;1.90;;;23.90;44.80;;;;;;4979897;28;20442;-61
2023/07/23 02:50:30;;;;;;;1.77;1.67;;;23.90;44.70;;;;;;4992308;28;21139;-61
2023/07/23 02:52:56;;;;;;;1.57;1.47;;;23.90;44.70;;;;;;4993365;28;20472;-62
2023/07/23 02:55:24;;;;;;;1.60;1.50;;;23.90;44.80;;;;;;4990388;28;20226;-62
2023/07/23 02:57:51;;;;;;;1.83;1.67;;;23.90;44.80;;;;;;4978430;28;20304;-61
2023/07/23 03:00:18;;;;;;;1.63;1.53;;;23.90;44.80;;;;;;4979079;28;20501;-61
2023/07/23 03:02:44;;;;;;;1.70;1.60;;;23.90;44.80;;;;;;4981507;28;20454;-63
2023/07/23 03:05:10;;;;;;;1.60;1.50;;;23.90;44.70;;;;;;4974679;28;21311;-65
2023/07/23 03:07:36;;;;;;;1.73;1.63;;;23.90;44.70;;;;;;4979017;28;20502;-61
2023/07/23 03:10:02;;;;;;;1.53;1.43;;;23.90;44.80;;;;;;4977136;28;20308;-61
2023/07/23 03:12:28;;;;;;;1.60;1.50;;;23.90;44.70;;;;;;4980402;28;20569;-61
2023/07/23 03:14:53;;;;;;;1.60;1.50;;;23.90;44.70;;;;;;4989952;28;20453;-61
2023/07/23 03:17:19;;;;;;;1.67;1.57;;;23.90;44.70;;;;;;4991653;28;20231;-61
2023/07/23 03:19:44;;;;;;;1.70;1.60;;;23.90;44.80;;;;;;4984433;28;20668;-61
2023/07/23 03:22:10;;;;;;;1.80;1.70;;;23.90;44.80;;;;;;4981453;28;20672;-61
2023/07/23 03:24:35;;;;;;;1.50;1.40;;;23.90;44.80;;;;;;4978766;28;20323;-61
2023/07/23 03:27:01;;;;;;;1.80;1.70;;;23.90;44.80;;;;;;4972821;28;20238;-61
2023/07/23 03:29:26;;;;;;;1.70;1.60;;;23.90;44.70;;;;;;4972702;28;20223;-63
2023/07/23 03:31:52;;;;;;;1.60;1.50;;;23.90;44.80;;;;;;4972192;28;20251;-61
2023/07/23 03:34:17;;;;;;;1.50;1.40;;;23.90;44.70;;;;;;4970606;28;20580;-62
2023/07/23 03:36:43;;;;;;;1.60;1.50;;;23.90;44.80;;;;;;4975158;28;20278;-62
2023/07/23 03:39:08;;;;;;;1.60;1.50;;;23.90;44.70;;;;;;4974560;28;20304;-61
2023/07/23 03:41:34;;;;;;;1.80;1.70;;;23.90;44.70;;;;;;4970707;28;20231;-62
2023/07/23 03:44:00;;;;;;;1.73;1.63;;;23.90;44.70;;;;;;4972454;28;20231;-61
2023/07/23 03:46:25;;;;;;;1.83;1.73;;;23.90;44.80;;;;;;4991142;28;20346;-62
2023/07/23 03:48:51;;;;;;;1.70;1.60;;;23.90;44.80;;;;;;4993739;28;20227;-62
2023/07/23 03:51:19;;;;;;;1.63;1.53;;;23.90;44.80;;;;;;4986347;28;20727;-62
2023/07/23 03:53:44;;;;;;;1.80;1.70;;;23.90;44.80;;;;;;4983142;28;20217;-61
2023/07/23 03:56:09;;;;;;;1.60;1.50;;;23.90;44.80;;;;;;4985548;28;20558;-62
2023/07/23 03:58:35;;;;;;;1.53;1.43;;;23.90;44.80;;;;;;4994581;28;20243;-61
2023/07/23 04:01:03;;;;;;;1.60;1.50;;;23.90;44.80;;;;;;4992921;28;20271;-62
2023/07/23 04:03:29;;;;;;;1.63;1.53;;;23.90;44.80;;;;;;4996125;28;20699;-61
2023/07/23 04:05:56;;;;;;;1.53;1.43;;;23.90;44.80;;;;;;4990412;28;20473;-63
2023/07/23 04:08:21;;;;;;;1.47;1.37;;;23.90;44.80;;;;;;4992128;28;20224;-64
2023/07/23 04:10:47;;;;;;;1.40;1.30;;;23.90;44.80;;;;;;4990624;28;20479;-61
2023/07/23 04:13:12;;;;;;;1.50;1.40;;;23.90;44.70;;;;;;4992154;28;20238;-61
2023/07/23 04:15:38;;;;;;;1.70;1.60;;;23.90;44.70;;;;;;4995423;28;20236;-62
2023/07/23 04:18:13;;;;;;;1.80;1.70;;;23.90;44.70;;;;;;4996246;28;20223;-61
2023/07/23 04:20:39;;;;;;;1.70;1.60;;;23.90;44.70;;;;;;4992001;28;20220;-61
2023/07/23 04:23:05;;;;;;;1.50;1.40;;;23.90;44.70;;;;;;4997665;28;20452;-61
2023/07/23 04:25:31;;;;;;;1.50;1.40;;;23.90;44.80;;;;;;4995716;28;20278;-62
2023/07/23 04:27:56;;;;;;;1.70;1.60;;;23.90;44.70;;;;;;4992810;28;20242;-62
2023/07/23 04:30:26;;;;;;;1.67;1.57;;;23.90;44.70;;;;;;4975764;28;20455;-62
2023/07/23 04:32:51;;;;;;;1.70;1.60;;;23.90;44.70;;;;;;4995143;28;20228;-62
2023/07/23 04:35:17;;;;;;;1.40;1.30;;;23.90;44.70;;;;;;4993843;28;20512;-62
2023/07/23 04:37:42;;;;;;;1.50;1.40;;;23.90;44.70;;;;;;4978097;28;20227;-62
2023/07/23 04:40:08;;;;;;;1.47;1.37;;;23.90;44.70;;;;;;4976728;28;20220;-61
2023/07/23 04:42:34;;;;;;;1.60;1.50;;;23.90;44.60;;;;;;4976809;28;20227;-61
2023/07/23 04:44:59;;;;;;;1.67;1.57;;;23.90;44.60;;;;;;4983951;28;20908;-62
2023/07/23 04:47:25;;;;;;;1.70;1.60;;;23.90;44.60;;;;;;4976706;28;20230;-62
2023/07/23 04:49:50;;;;;;;1.70;1.60;;;23.90;44.50;;;;;;4973920;28;20323;-64
2023/07/23 04:52:18;;;;;;;1.80;1.70;;;23.90;44.50;;;;;;4976808;28;20230;-61
2023/07/23 04:54:43;;;;;;;1.77;1.67;;;23.90;44.50;;;;;;4982559;28;20677;-61
2023/07/23 04:57:09;;;;;;;1.53;1.43;;;23.90;44.40;;;;;;4982346;28;20442;-61
2023/07/23 04:59:35;;;;;;;1.70;1.60;;;23.90;44.40;;;;;;4992920;28;20876;-62
2023/07/23 05:02:00;;;;;;;1.70;1.60;;;23.90;44.40;;;;;;4987086;28;20344;-63
2023/07/23 05:04:26;;;;;;;1.60;1.50;;;23.90;44.40;;;;;;4982563;28;20303;-61
2023/07/23 05:06:52;;;;;;;1.60;1.50;;;23.90;44.40;;;;;;4974807;28;20649;-62
2023/07/23 05:09:18;;;;;;;1.70;1.60;;;23.90;44.30;;;;;;4993392;28;20533;-61
2023/07/23 05:11:43;;;;;;;1.70;1.60;;;23.90;44.30;;;;;;4995596;28;20314;-61
2023/07/23 05:14:09;;;;;;;1.60;1.50;;;23.90;44.30;;;;;;4995939;28;20251;-62
2023/07/23 05:16:35;;;;;;;1.70;1.60;;;23.90;44.30;;;;;;4996923;28;20233;-61
2023/07/23 05:19:00;;;;;;;1.87;1.77;;;23.90;44.30;;;;;;4992797;28;20219;-61
2023/07/23 05:21:26;;;;;;;1.90;1.80;;;23.90;44.20;;;;;;4985819;28;20231;-62
2023/07/23 05:23:51;;;;;;;2.13;1.57;;;23.90;44.20;;;;;;4995309;28;20306;-62
2023/07/23 05:26:17;;;;;;;1.50;1.40;;;23.90;44.20;;;;;;4984649;28;20243;-61
2023/07/23 05:28:42;;;;;;;1.47;1.30;;;24.00;44.20;;;;;;4973217;28;20221;-62
2023/07/23 05:31:08;;;;;;;1.83;1.73;;;23.90;44.20;;;;;;4973706;28;20235;-61
2023/07/23 05:33:33;;;;;;;1.50;1.40;;;23.90;44.10;;;;;;4977732;28;20228;-61
2023/07/23 05:35:59;;;;;;;1.53;1.43;;;23.90;44.20;;;;;;4972979;28;20236;-62
2023/07/23 05:38:26;;;;;;;1.60;1.50;;;23.90;44.10;;;;;;4974718;28;20274;-62
2023/07/23 05:40:56;;;;;;;1.70;1.60;;;23.90;44.10;;;;;;4975437;28;20355;-61
2023/07/23 05:43:22;;;;;;;1.63;1.53;;;23.90;44.10;;;;;;4986238;28;20445;-61
2023/07/23 05:45:47;;;;;;;1.63;1.53;;;23.90;44.10;;;;;;4988101;28;22673;-61
2023/07/23 05:48:13;;;;;;;1.90;1.80;;;23.90;44.10;;;;;;4975749;28;20644;-62
2023/07/23 05:50:38;;;;;;;1.60;1.50;;;24.00;44.10;;;;;;4975842;28;20232;-62
2023/07/23 05:53:04;;;;;;;3.10;1.60;;;23.90;44.00;;;;;;4976656;28;20228;-61
2023/07/23 05:55:29;;;;;;;1.40;1.30;;;23.90;44.00;;;;;;4975276;28;20221;-61
2023/07/23 05:57:55;;;;;;;1.37;1.27;;;24.00;44.10;;;;;;4983773;28;20223;-62
2023/07/23 06:00:20;;;;;;;1.60;1.50;;;24.00;44.10;;;;;;4975067;28;20267;-62
2023/07/23 06:02:46;;;;;;;1.40;1.30;;;24.00;44.00;;;;;;4975423;28;20232;-61
2023/07/23 06:05:11;;;;;;;1.73;1.63;;;23.90;43.90;;;;;;4971999;28;20243;-62
2023/07/23 06:07:37;;;;;;;2.23;1.57;;;24.00;44.00;;;;;;4984691;28;20250;-61
2023/07/23 06:10:03;;;;;;;1.63;1.53;;;23.90;44.00;;;;;;4991989;28;20235;-61
2023/07/23 06:12:28;;;;;;;1.60;1.50;;;23.90;43.80;;;;;;4973649;28;20231;-61
2023/07/23 06:14:54;;;;;;;1.97;1.67;;;24.00;43.90;;;;;;4973793;28;20443;-62
2023/07/23 06:17:20;;;;;;;1.90;1.80;;;23.90;43.80;;;;;;4976481;28;20887;-61
2023/07/23 06:19:45;;;;;;;1.53;1.43;;;23.90;43.80;;;;;;4974301;28;20668;-61
2023/07/23 06:22:11;;;;;;;1.50;1.40;;;24.00;43.90;;;;;;4980012;28;20271;-62
2023/07/23 06:24:37;;;;;;;1.40;1.30;;;23.90;43.80;;;;;;4977627;28;20278;-62
2023/07/23 06:27:03;;;;;;;1.70;1.60;;;24.00;43.90;;;;;;4989774;28;20503;-61
2023/07/23 06:29:28;;;;;;;1.57;1.40;;;23.90;43.80;;;;;;4983032;28;20216;-62
2023/07/23 06:31:54;;;;;;;1.83;1.50;;;24.00;43.90;;;;;;4976342;28;20227;-62
2023/07/23 06:34:19;;;;;;;1.60;1.50;;;24.00;43.80;;;;;;4972662;28;20232;-61
2023/07/23 06:36:46;;;;;;;1.93;1.83;;;24.00;43.80;;;;;;4971200;28;20302;-61
2023/07/23 06:39:11;;;;;;;1.70;1.60;;;24.00;43.80;;;;;;4981146;28;20225;-63
2023/07/23 06:41:37;;;;;;;1.63;1.53;;;24.00;43.80;;;;;;4984897;28;20463;-62
2023/07/23 06:44:02;;;;;;;1.40;1.30;;;23.90;43.70;;;;;;4995960;28;20611;-61
2023/07/23 06:46:28;;;;;;;1.40;1.30;;;24.00;43.80;;;;;;4992661;28;20231;-61
2023/07/23 06:48:54;;;;;;;1.70;1.60;;;24.00;43.70;;;;;;4992790;28;20677;-63
2023/07/23 06:51:19;;;;;;;1.73;1.63;;;24.00;43.70;;;;;;4990359;28;20230;-61
2023/07/23 06:53:45;;;;;;;1.60;1.50;;;24.00;43.70;;;;;;4988023;28;20223;-61
2023/07/23 06:56:13;;;;;;;1.60;1.50;;;23.90;43.70;;;;;;4993726;28;20230;-62
2023/07/23 06:58:39;;;;;;;1.53;1.43;;;24.00;43.70;;;;;;4994286;28;20240;-62
2023/07/23 07:01:05;;;;;;;1.40;1.30;;;23.90;43.50;;;;;;4992747;28;20481;-62
2023/07/23 07:03:31;;;;;;;1.47;1.37;;;24.00;43.60;;;;;;4994070;28;23794;-62
2023/07/23 07:05:58;;;;;;;1.63;1.53;;;23.90;43.50;;;;;;4991210;28;20837;-63
2023/07/23 07:08:25;;;;;;;1.60;1.50;;;24.00;43.60;;;;;;4995338;28;20802;-61
2023/07/23 07:10:58;;;;;;;2.00;1.80;;;24.00;43.60;;;;;;4972716;28;21107;-62
2023/07/23 07:13:23;;;;;;;1.50;1.40;;;24.00;43.60;;;;;;4976197;28;20454;-61
2023/07/23 07:15:49;;;;;;;1.60;1.50;;;23.90;43.50;;;;;;4971197;28;20807;-61
2023/07/23 07:18:14;;;;;;;1.70;1.60;;;24.00;43.60;;;;;;4978098;28;20751;-62
2023/07/23 07:20:40;;;;;;;1.67;1.57;;;24.00;43.60;;;;;;5011895;28;20232;-62
2023/07/23 07:23:05;;;;;;;1.50;1.40;;;24.00;43.50;;;;;;4988567;28;20258;-62
2023/07/23 07:25:31;;;;;;;1.50;1.40;;;24.00;43.60;;;;;;4991226;28;20240;-61
2023/07/23 07:27:57;;;;;;;1.77;1.60;;;23.90;43.40;;;;;;4993713;28;20298;-61
2023/07/23 07:30:22;;;;;;;1.70;1.60;;;24.00;43.50;;;;;;4979312;28;20274;-61
2023/07/23 07:32:48;;;;;;;1.57;1.47;;;23.90;43.40;;;;;;4977905;28;20228;-61
2023/07/23 07:35:13;;;;;;;1.50;1.40;;;23.90;43.40;;;;;;4988098;28;20223;-61
2023/07/23 07:37:39;;;;;;;1.40;1.30;;;24.00;43.50;;;;;;4993715;28;20222;-63
2023/07/23 07:40:05;;;;;;;1.83;1.50;;;24.00;43.40;;;;;;4992050;28;20227;-62
2023/07/23 07:42:31;;;;;;;2.17;1.40;;;24.00;43.40;;;;;;4990948;28;20223;-61
2023/07/23 07:44:57;;;;;;;1.53;1.43;;;23.90;43.40;;;;;;4991308;28;20466;-62
2023/07/23 07:47:22;;;;;;;2.03;1.83;;;24.00;43.40;;;;;;4993279;28;20219;-61
2023/07/23 07:49:51;;;;;;;1.70;1.60;;;24.00;43.40;;;;;;4991407;28;20224;-61
2023/07/23 07:52:17;;;;;;;1.63;1.53;;;24.00;43.40;;;;;;4980515;28;20242;-61
2023/07/23 07:54:43;;;;;;;1.53;1.43;;;23.90;44.10;;;;;;4979341;28;20442;-62
2023/07/23 07:57:09;;;;;;;1.40;1.30;;;24.00;43.30;;;;;;4980620;28;20234;-61
2023/07/23 07:59:34;;;;;;;1.60;1.50;;;23.90;43.30;;;;;;4992195;28;20322;-62
2023/07/23 08:02:01;;;;;;;1.87;1.60;;;23.90;43.30;;;;;;4993419;28;20568;-62
2023/07/23 08:04:27;;;;;;;1.87;1.40;;;24.00;43.30;;;;;;4995315;28;20220;-62
2023/07/23 08:06:53;;;;;;;1.40;1.30;;;23.90;43.20;;;;;;4997054;28;20500;-62
2023/07/23 08:09:21;;;;;;;1.70;1.50;;;23.90;43.20;;;;;;4997344;28;20579;-62
2023/07/23 08:11:48;;;;;;;1.33;1.23;;;24.00;43.30;;;;;;4995725;28;20449;-62
2023/07/23 08:14:14;;;;;;;1.57;1.47;;;23.90;43.90;;;;;;4999698;28;20440;-63
2023/07/23 08:16:40;;;;;;;2.33;1.40;;;23.90;43.10;;;;;;4996119;28;20453;-62
2023/07/23 08:19:08;;;;;;;1.60;1.50;;;23.90;43.10;;;;;;4990514;28;20499;-62
2023/07/23 08:21:33;;;;;;;1.70;1.60;;;23.90;43.20;;;;;;4975918;28;20239;-61
2023/07/23 08:23:59;;;;;;;1.80;1.53;;;23.90;43.10;;;;;;4975912;28;20821;-62
2023/07/23 08:26:27;;;;;;;1.70;1.60;;;23.90;43.20;;;;;;4977301;28;20235;-62
2023/07/23 08:28:59;;;;;;;1.33;1.23;;;23.90;43.10;;;;;;4977184;28;20915;-62
2023/07/23 08:31:25;;;;;;;1.70;1.60;;;23.90;43.10;;;;;;4976242;28;20489;-62
2023/07/23 08:33:52;;;;;;;1.80;1.70;;;23.90;43.20;;;;;;4993236;28;20495;-61
2023/07/23 08:36:18;;;;;;;3.50;1.40;;;23.90;43.20;;;;;;4978847;28;20332;-61
2023/07/23 08:38:44;;;;;;;1.50;1.40;;;23.90;43.10;;;;;;4981872;28;20457;-61
2023/07/23 08:41:42;;;;;;;1.50;1.40;;;23.90;43.10;;;;;;4993699;28;20232;-61
2023/07/23 08:44:28;;;;;;;1.40;1.30;;;23.90;43.10;;;;;;4984092;28;20492;-61
2023/07/23 08:47:12;;;;;;;1.43;1.33;;;23.90;43.20;;;;;;4992749;28;20477;-62
2023/07/23 08:49:42;;;;;;;1.50;1.40;;;23.90;43.10;;;;;;4978608;28;20449;-64
2023/07/23 08:52:14;;;;;;;1.50;1.40;;;23.90;43.20;;;;;;4998637;28;20452;-61
2023/07/23 08:54:40;;;;;;;1.60;1.50;;;23.90;43.20;;;;;;4975068;28;20537;-61
2023/07/23 08:57:08;;;;;;;1.50;1.40;;;23.90;43.20;;;;;;4975308;28;20443;-62
2023/07/23 08:59:34;;;;;;;1.60;1.50;;;23.90;43.20;;;;;;4973924;28;20466;-61
2023/07/23 09:02:01;;;;;;;1.40;1.30;;;23.90;43.20;;;;;;4991401;28;20900;-62
2023/07/23 09:04:27;;;;;;;1.70;1.60;;;23.90;43.20;;;;;;4998465;28;20942;-62
2023/07/23 09:06:56;;;;;;;1.60;1.50;;;23.90;43.20;;;;;;4995146;28;20503;-61
2023/07/23 09:09:22;;;;;;;1.50;1.40;;;23.90;43.20;;;;;;4994776;28;20235;-61
2023/07/23 09:11:48;;;;;;;1.60;1.50;;;23.90;43.20;;;;;;4994872;28;20965;-62
2023/07/23 09:14:15;;;;;;;1.43;1.33;;;23.90;43.20;;;;;;4995270;28;20679;-61
2023/07/23 09:16:45;;;;;;;1.70;1.60;;;23.90;43.20;;;;;;4995193;28;20454;-62
2023/07/23 09:19:12;;;;;;;1.53;1.43;;;23.90;43.60;;;;;;4991283;28;20445;-63
2023/07/23 09:21:44;;;;;;;1.60;1.50;;;23.90;43.20;;;;;;4973532;28;20454;-62
2023/07/23 09:24:15;;;;;;;1.67;1.30;;;23.90;43.20;;;;;;4998196;28;20469;-61
2023/07/23 09:26:41;;;;;;;1.47;1.37;;;23.90;43.20;;;;;;4981977;28;20470;-62
2023/07/23 09:29:11;;;;;;;1.57;1.47;;;23.90;43.20;;;;;;4973660;28;20494;-61
2023/07/23 09:31:37;;;;;;;1.53;1.43;;;23.90;43.20;;;;;;4981788;28;20455;-61
2023/07/23 09:34:03;;;;;;;1.40;1.30;;;23.90;43.30;;;;;;4977234;28;20480;-62
2023/07/23 09:36:30;;;;;;;1.50;1.40;;;23.90;43.20;;;;;;4978066;28;20629;-61
2023/07/23 09:38:57;;;;;;;1.70;1.60;;;23.90;43.30;;;;;;4977956;28;20449;-61
2023/07/23 09:41:25;;;;;;;1.77;1.67;;;23.90;43.20;;;;;;4974967;28;20487;-61
2023/07/23 09:43:51;;;;;;;1.70;1.60;;;23.90;43.30;;;;;;4980183;28;20536;-61
2023/07/23 09:46:17;;;;;;;1.60;1.50;;;23.90;43.20;;;;;;4981960;28;20965;-61
2023/07/23 09:48:48;;;;;;;1.50;1.40;;;23.90;43.30;;;;;;4978787;28;20661;-62
2023/07/23 09:51:14;;;;;;;1.40;1.30;;;23.90;43.30;;;;;;4983310;28;20362;-62
2023/07/23 09:53:47;;;;;;;1.53;1.43;;;23.90;43.30;;;;;;4984016;28;20507;-62
2023/07/23 09:56:18;;;;;;;1.30;1.20;;;23.90;43.30;;;;;;4996360;28;20551;-62
2023/07/23 09:58:50;;;;;;;1.30;1.20;;;23.90;43.30;;;;;;4993560;28;20492;-61
2023/07/23 10:01:16;;;;;;;1.47;1.37;;;23.90;43.40;;;;;;4994360;28;20893;-62
2023/07/23 10:03:44;;;;;;;1.60;1.50;;;23.90;43.40;;;;;;4993850;28;20449;-63
2023/07/23 10:06:11;;;;;;;1.50;1.40;;;23.90;43.30;;;;;;4993890;28;20537;-62
2023/07/23 10:08:43;;;;;;;1.30;1.20;;;23.90;43.30;;;;;;4991678;28;20454;-62
2023/07/23 10:11:10;;;;;;;1.30;1.20;;;23.90;43.40;;;;;;4992261;28;20445;-61
2023/07/23 10:13:36;;;;;;;1.43;1.30;;;23.90;43.40;;;;;;4991314;28;20477;-62
2023/07/23 10:16:05;;;;;;;1.70;1.60;;;23.90;43.40;;;;;;4988349;28;20449;-61
2023/07/23 10:18:34;;;;;;;1.50;1.40;;;23.90;43.30;;;;;;4970485;28;20462;-62
2023/07/23 10:21:00;;;;;;;1.50;1.40;;;23.90;43.30;;;;;;4974363;28;20466;-62
2023/07/23 10:23:27;;;;;;;1.50;1.40;;;23.90;43.30;;;;;;5018661;28;20805;-62
2023/07/23 10:26:20;;;;;;;1.50;1.40;;;23.90;43.30;;;;;;4986078;28;20243;-61
2023/07/23 10:28:47;;;;;;;1.50;1.40;;;23.90;43.40;;;;;;4987394;28;21219;-62
2023/07/23 10:31:20;;;;;;;1.30;1.20;;;23.90;43.40;;;;;;4974262;28;20480;-61
2023/07/23 10:33:47;;;;;;;1.43;1.33;;;23.90;43.40;;;;;;4971517;28;20462;-62
2023/07/23 10:36:13;;;;;;;1.43;1.33;;;23.90;43.30;;;;;;4983525;28;20465;-61
2023/07/23 10:38:39;;;;;;;1.30;1.20;;;23.90;43.40;;;;;;4981484;28;20989;-62
2023/07/23 10:41:05;;;;;;;1.53;1.43;;;23.90;43.40;;;;;;4987342;28;20270;-62
2023/07/23 10:43:44;;;;;;;1.57;1.47;;;23.90;43.30;;;;;;4973084;28;20324;-61
2023/07/23 10:46:12;;;;;;;1.50;1.40;;;23.90;43.30;;;;;;4991728;28;20778;-61
2023/07/23 10:48:48;;;;;;;1.40;1.30;;;23.90;43.40;;;;;;4994690;28;21591;-61
2023/07/23 10:51:15;;;;;;;1.50;1.40;;;23.90;43.30;;;;;;4991881;28;20569;-61
2023/07/23 10:53:53;;;;;;;1.70;1.60;;;23.90;43.40;;;;;;4997388;28;20497;-62
2023/07/23 10:56:36;;;;;;;1.30;1.20;;;23.90;43.40;;;;;;4991958;28;20456;-61
2023/07/23 10:59:04;;;;;;;1.30;1.20;;;23.90;43.40;;;;;;4989656;28;20964;-62
2023/07/23 11:01:35;;;;;;;1.40;1.30;;;23.80;43.30;;;;;;4974666;28;20556;-62
2023/07/23 11:04:26;;;;;;;1.53;1.43;;;23.90;43.40;;;;;;4994286;28;20949;-63
2023/07/23 11:07:04;;;;;;;1.30;1.20;;;23.90;43.40;;;;;;4973238;28;20479;-61
2023/07/23 11:09:34;;;;;;;1.30;1.20;;;23.90;43.40;;;;;;4979206;28;20816;-61
2023/07/23 11:12:03;;;;;;;1.30;1.20;;;23.90;43.40;;;;;;4973615;28;20967;-62
2023/07/23 11:14:30;;;;;;;1.70;1.60;;;23.80;43.40;;;;;;4973743;28;20466;-62
2023/07/23 11:16:57;;;;;;;1.20;1.10;;;23.90;43.40;;;;;;4971674;28;20986;-62
2023/07/23 11:19:25;;;;;;;1.20;1.10;;;23.90;43.50;;;;;;4973159;28;20454;-61
2023/07/23 11:22:01;;;;;;;1.30;1.20;;;23.80;43.30;;;;;;4975354;28;20463;-62
2023/07/23 11:24:28;;;;;;;1.60;1.50;;;23.90;43.40;;;;;;4985443;28;20458;-62
2023/07/23 11:26:59;;;;;;;1.50;1.40;;;23.90;43.50;;;;;;4978946;28;20481;-63
2023/07/23 11:29:25;;;;;;;1.30;1.20;;;23.90;43.40;;;;;;4980062;28;20461;-62
2023/07/23 11:31:52;;;;;;;1.40;1.30;;;23.90;43.50;;;;;;4979118;28;20457;-61
2023/07/23 11:34:17;;;;;;;1.30;1.20;;;23.80;43.40;;;;;;4978390;28;20876;-62
2023/07/23 11:36:43;;;;;;;1.27;1.17;;;23.90;43.40;;;;;;4975636;28;20447;-61
2023/07/23 11:39:09;;;;;;;1.40;1.30;;;23.80;43.30;;;;;;4980870;28;20232;-63
2023/07/23 11:41:41;;;;;;;1.40;1.30;;;23.80;43.30;;;;;;4977511;28;20228;-61
2023/07/23 11:44:08;;;;;;;1.50;1.40;;;23.80;43.30;;;;;;4977960;28;20228;-61
2023/07/23 11:46:36;;;;;;;1.23;1.13;;;23.80;43.30;;;;;;4979334;28;20465;-63
2023/07/23 11:49:02;;;;;;;1.40;1.30;;;23.80;43.40;;;;;;4979619;28;20968;-62
2023/07/23 11:51:29;;;;;;;1.20;1.10;;;23.80;43.30;;;;;;4978827;28;20557;-61
2023/07/23 11:54:00;;;;;;;1.47;1.37;;;23.90;43.50;;;;;;4976122;28;20453;-62
2023/07/23 11:56:25;;;;;;;1.30;1.20;;;23.90;43.50;;;;;;4977487;28;20462;-62
2023/07/23 11:58:51;;;;;;;1.17;1.07;;;23.80;43.40;;;;;;4982011;28;20472;-61
2023/07/23 12:01:17;;;;;;;11.97;1.73;;;23.90;43.40;;;;;;4975783;28;20231;-62
2023/07/23 12:03:44;;;;;;;1.30;1.20;;;23.80;43.40;;;;;;4979792;28;20215;-62
2023/07/23 12:06:14;;;;;;;1.17;1.07;;;23.90;43.40;;;;;;4978723;28;20319;-61
2023/07/23 12:08:42;;;;;;;1.30;1.20;;;23.80;43.30;;;;;;4990341;28;20444;-61
2023/07/23 12:11:10;;;;;;;1.10;1.00;;;23.90;43.40;;;;;;4997208;28;20503;-61
2023/07/23 12:13:44;;;;;;;1.50;1.40;;;23.80;43.40;;;;;;4996860;28;20480;-62
2023/07/23 12:16:38;;;;;;;1.33;1.23;;;23.80;43.30;;;;;;4997328;28;20460;-61
2023/07/23 12:19:21;;;;;;;1.10;1.10;;;23.90;43.40;;;;;;4983551;28;21074;-61
2023/07/23 12:21:52;;;;;;;3.10;1.10;;;23.90;43.40;;;;;;4993350;28;20483;-61
2023/07/23 12:24:22;;;;;;;1.17;1.07;;;23.90;43.50;;;;;;4981692;28;20443;-61
2023/07/23 12:26:53;;;;;;;1.27;1.17;;;23.80;43.50;;;;;;4978315;28;20517;-61
2023/07/23 12:29:20;;;;;;;2.07;1.07;;;23.90;43.40;;;;;;4978997;28;20454;-61
2023/07/23 12:31:48;;;;;;;1.20;1.10;;;23.90;43.40;;;;;;4974849;28;20561;-62
2023/07/23 12:34:15;;;;;;;1.30;1.17;;;23.80;43.30;;;;;;4973430;28;20452;-61
2023/07/23 12:36:41;;;;;;;1.30;1.20;;;23.90;43.40;;;;;;4976751;28;20473;-62
2023/07/23 12:39:08;;;;;;;1.80;1.10;;;23.80;43.40;;;;;;4976178;28;20449;-62
2023/07/23 12:41:34;;;;;;;1.20;1.10;;;23.80;43.40;;;;;;4975413;28;20689;-62
2023/07/23 12:44:01;;;;;;;1.23;1.13;;;23.90;43.50;;;;;;4979087;28;20553;-61
2023/07/23 12:46:26;;;;;;;1.17;1.07;;;23.90;43.40;;;;;;4973845;28;20475;-61
2023/07/23 12:48:52;;;;;;;1.10;0.90;;;23.80;43.30;;;;;;4983445;28;20461;-62